Burt, Illinois
Current Conditions -  °F | °C
As of 9:15 AM on Thursday 18 Dec 2014 (Local Time) from KAAA Reporting Station
Light Snow Light Snow  
Wind Chill: -3°   Ceiling: 2200
Heat Index: -3°   Visibility: 2.5mi
Dew Point: -5°   Wind: 0mph
Humidity: 88%   Direction: NA
Pressure: 30.33"   Gusts: NA
Location:  40.3088°N, 89.3237°W
Report Text: KAAA 181515Z AUTO 00000KT 2 1/2SM -SN BKN022 BKN030 OVC042 M03/M05 A3033 RMK AO2 VIS 1 1/2V5 T10331050
Loading
Personal Weather Stations






























Interactive Weather Map New forecast layout! Learn more

10-Day Weather Forecast

Advertisements
Track Severe Weather on mobile